Terminal Aerodrome Forecast
Issued by NWS

Home | Current Version | Previous Version | Text Only | Print | Product List | Glossary On
Versions: 1 2 3 4 5 6 7 8 9 10 11 12 13 14 15 16 17 18 19 20
000
FTAK31 PANC 221739
TAFADQ
TAF
PADQ 221739Z 2218/2318 30015G25KT 6SM -SHSN SCT018 OVC040
      TEMPO 2218/2222 3SM -SHSN BR BKN018
     FM222200 30015G25KT 2SM -SN BKN025 OVC040
     FM230500 32015G25KT 5SM -SHSN BKN028 BKN040
     FM231000 30012G20KT P6SM SCT022 BKN050=

USA.gov is the U.S. government's official web portal to all federal, state and local government web resources and services.